sensor_id;sensor_type;location;lat;lon;timestamp;temperature;humidity
8994;DHT22;4532;50.886;4.700;2023-07-30T00:00:20;20.10;99.90
8994;DHT22;4532;50.886;4.700;2023-07-30T00:02:47;20.10;99.90
8994;DHT22;4532;50.886;4.700;2023-07-30T00:05:17;20.10;99.90
8994;DHT22;4532;50.886;4.700;2023-07-30T00:07:46;20.10;99.90
8994;DHT22;4532;50.886;4.700;2023-07-30T00:10:19;20.10;99.90
8994;DHT22;4532;50.886;4.700;2023-07-30T00:12:46;20.00;99.90
8994;DHT22;4532;50.886;4.700;2023-07-30T00:15:13;20.00;99.90
8994;DHT22;4532;50.886;4.700;2023-07-30T00:17:40;20.00;99.90
8994;DHT22;4532;50.886;4.700;2023-07-30T00:20:08;20.00;99.90
8994;DHT22;4532;50.886;4.700;2023-07-30T00:22:35;20.00;99.90
8994;DHT22;4532;50.886;4.700;2023-07-30T00:25:03;20.00;99.90
8994;DHT22;4532;50.886;4.700;2023-07-30T00:27:30;19.90;99.90
8994;DHT22;4532;50.886;4.700;2023-07-30T00:30:00;19.90;99.90
8994;DHT22;4532;50.886;4.700;2023-07-30T00:32:27;19.90;99.90
8994;DHT22;4532;50.886;4.700;2023-07-30T00:34:56;19.90;99.90
8994;DHT22;4532;50.886;4.700;2023-07-30T00:37:23;19.90;99.90
8994;DHT22;4532;50.886;4.700;2023-07-30T00:39:51;19.90;99.90
8994;DHT22;4532;50.886;4.700;2023-07-30T00:42:18;19.90;99.90
8994;DHT22;4532;50.886;4.700;2023-07-30T00:44:45;19.80;99.90
8994;DHT22;4532;50.886;4.700;2023-07-30T00:47:12;19.80;99.90
8994;DHT22;4532;50.886;4.700;2023-07-30T00:49:42;19.80;99.90
8994;DHT22;4532;50.886;4.700;2023-07-30T00:52:10;19.80;99.90
8994;DHT22;4532;50.886;4.700;2023-07-30T00:54:39;19.80;99.90
8994;DHT22;4532;50.886;4.700;2023-07-30T00:57:07;19.70;99.90
8994;DHT22;4532;50.886;4.700;2023-07-30T00:59:38;19.70;99.90
8994;DHT22;4532;50.886;4.700;2023-07-30T01:02:13;19.70;99.90
8994;DHT22;4532;50.886;4.700;2023-07-30T01:04:42;19.70;99.90
8994;DHT22;4532;50.886;4.700;2023-07-30T01:07:10;19.70;99.90
8994;DHT22;4532;50.886;4.700;2023-07-30T01:09:38;19.70;99.90
8994;DHT22;4532;50.886;4.700;2023-07-30T01:12:06;19.70;99.90
8994;DHT22;4532;50.886;4.700;2023-07-30T01:14:35;19.60;99.90
8994;DHT22;4532;50.886;4.700;2023-07-30T01:17:14;19.70;99.90
8994;DHT22;4532;50.886;4.700;2023-07-30T01:19:44;19.70;99.90
8994;DHT22;4532;50.886;4.700;2023-07-30T01:22:16;19.60;99.90
8994;DHT22;4532;50.886;4.700;2023-07-30T01:24:43;19.70;99.90
8994;DHT22;4532;50.886;4.700;2023-07-30T01:27:19;19.70;99.90
8994;DHT22;4532;50.886;4.700;2023-07-30T01:29:52;19.70;99.90
8994;DHT22;4532;50.886;4.700;2023-07-30T01:32:29;19.70;99.90
8994;DHT22;4532;50.886;4.700;2023-07-30T01:34:59;19.70;99.90
8994;DHT22;4532;50.886;4.700;2023-07-30T01:37:29;19.70;99.90
8994;DHT22;4532;50.886;4.700;2023-07-30T01:39:57;19.70;99.90
8994;DHT22;4532;50.886;4.700;2023-07-30T01:42:29;19.70;99.90
8994;DHT22;4532;50.886;4.700;2023-07-30T01:44:57;19.70;99.90
8994;DHT22;4532;50.886;4.700;2023-07-30T01:47:24;19.70;99.90
8994;DHT22;4532;50.886;4.700;2023-07-30T01:49:51;19.70;99.90
8994;DHT22;4532;50.886;4.700;2023-07-30T01:52:19;19.80;99.90
8994;DHT22;4532;50.886;4.700;2023-07-30T01:54:46;19.70;99.90
8994;DHT22;4532;50.886;4.700;2023-07-30T01:57:18;19.80;99.90
8994;DHT22;4532;50.886;4.700;2023-07-30T01:59:47;19.80;99.90
8994;DHT22;4532;50.886;4.700;2023-07-30T02:02:15;19.80;99.90
8994;DHT22;4532;50.886;4.700;2023-07-30T02:04:44;19.80;99.90
8994;DHT22;4532;50.886;4.700;2023-07-30T02:07:13;19.80;99.90
8994;DHT22;4532;50.886;4.700;2023-07-30T02:09:41;19.80;99.90
8994;DHT22;4532;50.886;4.700;2023-07-30T02:12:08;19.80;99.90
8994;DHT22;4532;50.886;4.700;2023-07-30T02:14:40;19.80;99.90
8994;DHT22;4532;50.886;4.700;2023-07-30T02:17:07;19.80;99.90
8994;DHT22;4532;50.886;4.700;2023-07-30T02:19:34;19.90;99.90
8994;DHT22;4532;50.886;4.700;2023-07-30T02:22:04;19.90;99.90
8994;DHT22;4532;50.886;4.700;2023-07-30T02:24:36;19.90;99.90
8994;DHT22;4532;50.886;4.700;2023-07-30T02:27:03;19.90;99.90
8994;DHT22;4532;50.886;4.700;2023-07-30T02:29:33;19.90;99.90
8994;DHT22;4532;50.886;4.700;2023-07-30T02:32:00;19.90;99.90
8994;DHT22;4532;50.886;4.700;2023-07-30T02:34:28;19.90;99.90
8994;DHT22;4532;50.886;4.700;2023-07-30T02:36:57;19.90;99.90
8994;DHT22;4532;50.886;4.700;2023-07-30T02:39:27;19.90;99.90
8994;DHT22;4532;50.886;4.700;2023-07-30T02:41:54;19.90;99.90
8994;DHT22;4532;50.886;4.700;2023-07-30T02:44:21;19.90;99.90
8994;DHT22;4532;50.886;4.700;2023-07-30T02:46:51;19.90;99.90
8994;DHT22;4532;50.886;4.700;2023-07-30T02:49:20;19.90;99.90
8994;DHT22;4532;50.886;4.700;2023-07-30T02:51:47;19.90;99.90
8994;DHT22;4532;50.886;4.700;2023-07-30T02:54:18;19.90;99.90
8994;DHT22;4532;50.886;4.700;2023-07-30T02:56:48;19.80;99.90
8994;DHT22;4532;50.886;4.700;2023-07-30T02:59:15;19.80;99.90
8994;DHT22;4532;50.886;4.700;2023-07-30T03:01:42;19.80;99.90
8994;DHT22;4532;50.886;4.700;2023-07-30T03:04:09;19.80;99.90
8994;DHT22;4532;50.886;4.700;2023-07-30T03:06:36;19.80;99.90
8994;DHT22;4532;50.886;4.700;2023-07-30T03:09:03;19.80;99.90
8994;DHT22;4532;50.886;4.700;2023-07-30T03:11:31;19.80;99.90
8994;DHT22;4532;50.886;4.700;2023-07-30T03:13:58;19.80;99.90
8994;DHT22;4532;50.886;4.700;2023-07-30T03:16:25;19.80;99.90
8994;DHT22;4532;50.886;4.700;2023-07-30T03:18:57;19.70;99.90
8994;DHT22;4532;50.886;4.700;2023-07-30T03:21:27;19.70;99.90
8994;DHT22;4532;50.886;4.700;2023-07-30T03:23:54;19.70;99.90
8994;DHT22;4532;50.886;4.700;2023-07-30T03:26:21;19.70;99.90
8994;DHT22;4532;50.886;4.700;2023-07-30T03:28:51;19.70;99.90
8994;DHT22;4532;50.886;4.700;2023-07-30T03:31:18;19.70;99.90
8994;DHT22;4532;50.886;4.700;2023-07-30T03:33:48;19.60;99.90
8994;DHT22;4532;50.886;4.700;2023-07-30T03:36:17;19.60;99.90
8994;DHT22;4532;50.886;4.700;2023-07-30T03:38:44;19.60;99.90
8994;DHT22;4532;50.886;4.700;2023-07-30T03:41:12;19.60;99.90
8994;DHT22;4532;50.886;4.700;2023-07-30T03:43:44;19.60;99.90
8994;DHT22;4532;50.886;4.700;2023-07-30T03:46:11;19.60;99.90
8994;DHT22;4532;50.886;4.700;2023-07-30T03:48:38;19.60;99.90
8994;DHT22;4532;50.886;4.700;2023-07-30T03:51:08;19.60;99.90
8994;DHT22;4532;50.886;4.700;2023-07-30T03:53:35;19.60;99.90
8994;DHT22;4532;50.886;4.700;2023-07-30T03:56:05;19.60;99.90
8994;DHT22;4532;50.886;4.700;2023-07-30T03:58:32;19.60;99.90
8994;DHT22;4532;50.886;4.700;2023-07-30T04:01:02;19.60;99.90
8994;DHT22;4532;50.886;4.700;2023-07-30T04:03:32;19.60;99.90
8994;DHT22;4532;50.886;4.700;2023-07-30T04:05:59;19.60;99.90
8994;DHT22;4532;50.886;4.700;2023-07-30T04:08:28;19.60;99.90
8994;DHT22;4532;50.886;4.700;2023-07-30T04:10:58;19.60;99.90
8994;DHT22;4532;50.886;4.700;2023-07-30T04:13:28;19.60;99.90
8994;DHT22;4532;50.886;4.700;2023-07-30T04:15:59;19.70;99.90
8994;DHT22;4532;50.886;4.700;2023-07-30T04:18:26;19.70;99.90
8994;DHT22;4532;50.886;4.700;2023-07-30T04:20:56;19.70;99.90
8994;DHT22;4532;50.886;4.700;2023-07-30T04:23:23;19.70;99.90
8994;DHT22;4532;50.886;4.700;2023-07-30T04:25:53;19.70;99.90
8994;DHT22;4532;50.886;4.700;2023-07-30T04:28:22;19.70;99.90
8994;DHT22;4532;50.886;4.700;2023-07-30T04:30:52;19.70;99.90
8994;DHT22;4532;50.886;4.700;2023-07-30T04:33:19;19.70;99.90
8994;DHT22;4532;50.886;4.700;2023-07-30T04:35:46;19.70;99.90
8994;DHT22;4532;50.886;4.700;2023-07-30T04:38:14;19.70;99.90
8994;DHT22;4532;50.886;4.700;2023-07-30T04:40:41;19.70;99.90
8994;DHT22;4532;50.886;4.700;2023-07-30T04:43:10;19.70;99.90
8994;DHT22;4532;50.886;4.700;2023-07-30T04:45:39;19.70;99.90
8994;DHT22;4532;50.886;4.700;2023-07-30T04:48:07;19.70;99.90
8994;DHT22;4532;50.886;4.700;2023-07-30T04:50:36;19.70;99.90
8994;DHT22;4532;50.886;4.700;2023-07-30T04:53:05;19.70;99.90
8994;DHT22;4532;50.886;4.700;2023-07-30T04:55:32;19.70;99.90
8994;DHT22;4532;50.886;4.700;2023-07-30T04:58:00;19.70;99.90
8994;DHT22;4532;50.886;4.700;2023-07-30T05:00:28;19.70;99.90
8994;DHT22;4532;50.886;4.700;2023-07-30T05:02:57;19.70;99.90
8994;DHT22;4532;50.886;4.700;2023-07-30T05:05:29;19.70;99.90
8994;DHT22;4532;50.886;4.700;2023-07-30T05:07:56;19.70;99.90
8994;DHT22;4532;50.886;4.700;2023-07-30T05:10:23;19.70;99.90
8994;DHT22;4532;50.886;4.700;2023-07-30T05:12:50;19.70;99.90
8994;DHT22;4532;50.886;4.700;2023-07-30T05:15:18;19.70;99.90
8994;DHT22;4532;50.886;4.700;2023-07-30T05:17:47;19.70;99.90
8994;DHT22;4532;50.886;4.700;2023-07-30T05:20:14;19.70;99.90
8994;DHT22;4532;50.886;4.700;2023-07-30T05:22:44;19.70;99.90
8994;DHT22;4532;50.886;4.700;2023-07-30T05:25:11;19.70;99.90
8994;DHT22;4532;50.886;4.700;2023-07-30T05:27:38;19.70;99.90
8994;DHT22;4532;50.886;4.700;2023-07-30T05:30:08;19.70;99.90
8994;DHT22;4532;50.886;4.700;2023-07-30T05:32:38;19.70;99.90
8994;DHT22;4532;50.886;4.700;2023-07-30T05:35:05;19.70;99.90
8994;DHT22;4532;50.886;4.700;2023-07-30T05:37:32;19.70;99.90
8994;DHT22;4532;50.886;4.700;2023-07-30T05:40:02;19.70;99.90
8994;DHT22;4532;50.886;4.700;2023-07-30T05:42:30;19.70;99.90
8994;DHT22;4532;50.886;4.700;2023-07-30T05:44:57;19.70;99.90
8994;DHT22;4532;50.886;4.700;2023-07-30T05:47:24;19.70;99.90
8994;DHT22;4532;50.886;4.700;2023-07-30T05:49:52;19.70;99.90
8994;DHT22;4532;50.886;4.700;2023-07-30T05:52:19;19.70;99.90
8994;DHT22;4532;50.886;4.700;2023-07-30T05:54:46;19.70;99.90
8994;DHT22;4532;50.886;4.700;2023-07-30T05:57:15;19.70;99.90
8994;DHT22;4532;50.886;4.700;2023-07-30T05:59:45;19.70;99.90
8994;DHT22;4532;50.886;4.700;2023-07-30T06:02:15;19.80;99.90
8994;DHT22;4532;50.886;4.700;2023-07-30T06:04:42;19.70;99.90
8994;DHT22;4532;50.886;4.700;2023-07-30T06:07:12;19.80;99.90
8994;DHT22;4532;50.886;4.700;2023-07-30T06:09:40;19.80;99.90
8994;DHT22;4532;50.886;4.700;2023-07-30T06:12:09;19.80;99.90
8994;DHT22;4532;50.886;4.700;2023-07-30T06:14:50;19.80;99.90
8994;DHT22;4532;50.886;4.700;2023-07-30T06:17:34;19.80;99.90
8994;DHT22;4532;50.886;4.700;2023-07-30T06:20:02;19.80;99.90
8994;DHT22;4532;50.886;4.700;2023-07-30T06:22:30;19.80;99.90
8994;DHT22;4532;50.886;4.700;2023-07-30T06:24:57;19.80;99.90
8994;DHT22;4532;50.886;4.700;2023-07-30T06:27:25;19.80;99.90
8994;DHT22;4532;50.886;4.700;2023-07-30T06:29:54;19.80;99.90
8994;DHT22;4532;50.886;4.700;2023-07-30T06:32:26;19.80;99.90
8994;DHT22;4532;50.886;4.700;2023-07-30T06:34:54;19.80;99.90
8994;DHT22;4532;50.886;4.700;2023-07-30T06:37:23;19.90;99.90
8994;DHT22;4532;50.886;4.700;2023-07-30T06:39:53;19.90;99.90
8994;DHT22;4532;50.886;4.700;2023-07-30T06:42:20;19.90;99.90
8994;DHT22;4532;50.886;4.700;2023-07-30T06:44:47;19.80;99.90
8994;DHT22;4532;50.886;4.700;2023-07-30T06:47:16;19.90;99.90
8994;DHT22;4532;50.886;4.700;2023-07-30T06:49:46;19.90;99.90
8994;DHT22;4532;50.886;4.700;2023-07-30T06:52:13;19.90;99.90
8994;DHT22;4532;50.886;4.700;2023-07-30T06:54:40;19.90;99.90
8994;DHT22;4532;50.886;4.700;2023-07-30T06:57:09;20.00;99.90
8994;DHT22;4532;50.886;4.700;2023-07-30T06:59:37;20.00;99.90
8994;DHT22;4532;50.886;4.700;2023-07-30T07:02:04;20.00;99.90
8994;DHT22;4532;50.886;4.700;2023-07-30T07:04:32;20.00;99.90
8994;DHT22;4532;50.886;4.700;2023-07-30T07:06:59;20.00;99.90
8994;DHT22;4532;50.886;4.700;2023-07-30T07:09:30;20.00;99.90
8994;DHT22;4532;50.886;4.700;2023-07-30T07:11:58;20.10;99.90
8994;DHT22;4532;50.886;4.700;2023-07-30T07:14:28;20.10;99.90
8994;DHT22;4532;50.886;4.700;2023-07-30T07:16:58;20.10;99.90
8994;DHT22;4532;50.886;4.700;2023-07-30T07:19:27;20.10;99.90
8994;DHT22;4532;50.886;4.700;2023-07-30T07:21:58;20.10;99.90
8994;DHT22;4532;50.886;4.700;2023-07-30T07:24:29;20.10;99.90
8994;DHT22;4532;50.886;4.700;2023-07-30T07:26:58;20.20;99.90
8994;DHT22;4532;50.886;4.700;2023-07-30T07:29:25;20.20;99.90
8994;DHT22;4532;50.886;4.700;2023-07-30T07:31:52;20.20;99.90
8994;DHT22;4532;50.886;4.700;2023-07-30T07:34:20;20.30;99.90
8994;DHT22;4532;50.886;4.700;2023-07-30T07:36:48;20.30;99.90
8994;DHT22;4532;50.886;4.700;2023-07-30T07:39:15;20.30;99.90
8994;DHT22;4532;50.886;4.700;2023-07-30T07:41:45;20.40;99.90
8994;DHT22;4532;50.886;4.700;2023-07-30T07:44:12;20.40;99.90
8994;DHT22;4532;50.886;4.700;2023-07-30T07:46:44;20.40;99.90
8994;DHT22;4532;50.886;4.700;2023-07-30T07:49:16;20.50;99.90
8994;DHT22;4532;50.886;4.700;2023-07-30T07:51:49;20.50;99.90
8994;DHT22;4532;50.886;4.700;2023-07-30T07:54:16;20.50;99.90
8994;DHT22;4532;50.886;4.700;2023-07-30T07:56:48;20.50;99.90
8994;DHT22;4532;50.886;4.700;2023-07-30T07:59:17;20.50;99.90
8994;DHT22;4532;50.886;4.700;2023-07-30T08:01:45;20.60;99.90
8994;DHT22;4532;50.886;4.700;2023-07-30T08:04:12;20.60;99.90
8994;DHT22;4532;50.886;4.700;2023-07-30T08:06:44;20.70;99.90
8994;DHT22;4532;50.886;4.700;2023-07-30T08:09:11;20.70;99.90
8994;DHT22;4532;50.886;4.700;2023-07-30T08:11:38;20.70;99.90
8994;DHT22;4532;50.886;4.700;2023-07-30T08:14:06;20.80;99.90
8994;DHT22;4532;50.886;4.700;2023-07-30T08:16:33;20.80;99.90
8994;DHT22;4532;50.886;4.700;2023-07-30T08:19:02;20.80;99.90
8994;DHT22;4532;50.886;4.700;2023-07-30T08:21:32;20.80;99.90
8994;DHT22;4532;50.886;4.700;2023-07-30T08:24:08;20.90;99.90
8994;DHT22;4532;50.886;4.700;2023-07-30T08:26:35;20.90;99.90
8994;DHT22;4532;50.886;4.700;2023-07-30T08:29:05;21.00;99.90
8994;DHT22;4532;50.886;4.700;2023-07-30T08:31:33;21.00;99.90
8994;DHT22;4532;50.886;4.700;2023-07-30T08:34:00;21.00;99.90
8994;DHT22;4532;50.886;4.700;2023-07-30T08:36:30;21.10;99.90
8994;DHT22;4532;50.886;4.700;2023-07-30T08:38:58;21.20;99.90
8994;DHT22;4532;50.886;4.700;2023-07-30T08:41:27;21.20;99.90
8994;DHT22;4532;50.886;4.700;2023-07-30T08:43:55;21.30;99.90
8994;DHT22;4532;50.886;4.700;2023-07-30T08:46:22;21.30;99.90
8994;DHT22;4532;50.886;4.700;2023-07-30T08:48:49;21.40;99.90
8994;DHT22;4532;50.886;4.700;2023-07-30T08:51:17;21.40;99.90
8994;DHT22;4532;50.886;4.700;2023-07-30T08:53:48;21.40;99.90
8994;DHT22;4532;50.886;4.700;2023-07-30T08:56:15;21.40;99.90
8994;DHT22;4532;50.886;4.700;2023-07-30T08:58:44;21.50;99.90
8994;DHT22;4532;50.886;4.700;2023-07-30T09:01:12;21.50;99.90
8994;DHT22;4532;50.886;4.700;2023-07-30T09:03:44;21.50;99.90
8994;DHT22;4532;50.886;4.700;2023-07-30T09:06:13;21.60;99.90
8994;DHT22;4532;50.886;4.700;2023-07-30T09:08:40;21.60;99.90
8994;DHT22;4532;50.886;4.700;2023-07-30T09:11:10;21.60;99.90
8994;DHT22;4532;50.886;4.700;2023-07-30T09:13:41;21.70;99.90
8994;DHT22;4532;50.886;4.700;2023-07-30T09:16:12;21.60;99.90
8994;DHT22;4532;50.886;4.700;2023-07-30T09:18:45;21.60;99.90
8994;DHT22;4532;50.886;4.700;2023-07-30T09:21:13;21.60;99.90
8994;DHT22;4532;50.886;4.700;2023-07-30T09:23:45;21.60;99.90
8994;DHT22;4532;50.886;4.700;2023-07-30T09:26:18;21.60;99.90
8994;DHT22;4532;50.886;4.700;2023-07-30T09:28:47;21.60;99.90
8994;DHT22;4532;50.886;4.700;2023-07-30T09:31:17;21.60;99.90
8994;DHT22;4532;50.886;4.700;2023-07-30T09:33:55;21.50;99.90
8994;DHT22;4532;50.886;4.700;2023-07-30T09:36:23;21.50;99.90
8994;DHT22;4532;50.886;4.700;2023-07-30T09:38:50;21.50;99.90
8994;DHT22;4532;50.886;4.700;2023-07-30T09:41:17;21.40;99.90
8994;DHT22;4532;50.886;4.700;2023-07-30T09:43:47;21.30;99.90
8994;DHT22;4532;50.886;4.700;2023-07-30T09:46:16;21.30;99.90
8994;DHT22;4532;50.886;4.700;2023-07-30T09:48:44;21.20;99.90
8994;DHT22;4532;50.886;4.700;2023-07-30T09:51:11;21.20;99.90
8994;DHT22;4532;50.886;4.700;2023-07-30T09:53:38;21.20;99.90
8994;DHT22;4532;50.886;4.700;2023-07-30T09:56:09;21.20;99.90
8994;DHT22;4532;50.886;4.700;2023-07-30T09:58:36;21.20;99.90
8994;DHT22;4532;50.886;4.700;2023-07-30T10:01:05;21.30;99.90
8994;DHT22;4532;50.886;4.700;2023-07-30T10:03:35;21.30;99.90
8994;DHT22;4532;50.886;4.700;2023-07-30T10:06:05;21.30;99.90
8994;DHT22;4532;50.886;4.700;2023-07-30T10:08:38;21.40;99.90
8994;DHT22;4532;50.886;4.700;2023-07-30T10:11:10;21.40;99.90
8994;DHT22;4532;50.886;4.700;2023-07-30T10:13:40;21.40;99.90
8994;DHT22;4532;50.886;4.700;2023-07-30T10:16:11;21.40;99.90
8994;DHT22;4532;50.886;4.700;2023-07-30T10:18:43;21.40;99.90
8994;DHT22;4532;50.886;4.700;2023-07-30T10:21:21;21.50;99.90
8994;DHT22;4532;50.886;4.700;2023-07-30T10:24:04;21.40;99.90
8994;DHT22;4532;50.886;4.700;2023-07-30T10:26:35;21.40;99.90
8994;DHT22;4532;50.886;4.700;2023-07-30T10:29:19;21.40;99.90
8994;DHT22;4532;50.886;4.700;2023-07-30T10:34:19;21.20;99.90
8994;DHT22;4532;50.886;4.700;2023-07-30T10:36:50;21.10;99.90
8994;DHT22;4532;50.886;4.700;2023-07-30T10:39:26;21.00;99.90
8994;DHT22;4532;50.886;4.700;2023-07-30T10:41:58;21.00;99.90
8994;DHT22;4532;50.886;4.700;2023-07-30T10:44:35;20.90;99.90
8994;DHT22;4532;50.886;4.700;2023-07-30T10:47:03;20.90;99.90
8994;DHT22;4532;50.886;4.700;2023-07-30T10:49:36;20.90;99.90
8994;DHT22;4532;50.886;4.700;2023-07-30T10:52:07;20.90;99.90
8994;DHT22;4532;50.886;4.700;2023-07-30T10:54:39;20.90;99.90
8994;DHT22;4532;50.886;4.700;2023-07-30T10:57:09;20.90;99.90
8994;DHT22;4532;50.886;4.700;2023-07-30T10:59:40;20.90;99.90
8994;DHT22;4532;50.886;4.700;2023-07-30T11:02:08;20.90;99.90
8994;DHT22;4532;50.886;4.700;2023-07-30T11:04:36;20.90;99.90
8994;DHT22;4532;50.886;4.700;2023-07-30T11:07:03;21.00;99.90
8994;DHT22;4532;50.886;4.700;2023-07-30T11:09:31;21.00;99.90
8994;DHT22;4532;50.886;4.700;2023-07-30T11:12:00;21.00;99.90
8994;DHT22;4532;50.886;4.700;2023-07-30T11:14:29;21.00;99.90
8994;DHT22;4532;50.886;4.700;2023-07-30T11:16:59;21.00;99.90
8994;DHT22;4532;50.886;4.700;2023-07-30T11:19:29;21.10;99.90
8994;DHT22;4532;50.886;4.700;2023-07-30T11:21:59;21.10;99.90
8994;DHT22;4532;50.886;4.700;2023-07-30T11:24:36;21.10;99.90
8994;DHT22;4532;50.886;4.700;2023-07-30T11:27:04;21.10;99.90
8994;DHT22;4532;50.886;4.700;2023-07-30T11:29:34;21.10;99.90
8994;DHT22;4532;50.886;4.700;2023-07-30T11:32:01;21.10;99.90
8994;DHT22;4532;50.886;4.700;2023-07-30T11:34:34;21.10;99.90
8994;DHT22;4532;50.886;4.700;2023-07-30T11:37:08;21.20;99.90
8994;DHT22;4532;50.886;4.700;2023-07-30T11:39:36;21.20;99.90
8994;DHT22;4532;50.886;4.700;2023-07-30T11:42:06;21.30;99.90
8994;DHT22;4532;50.886;4.700;2023-07-30T11:44:36;21.40;99.90
8994;DHT22;4532;50.886;4.700;2023-07-30T11:47:07;21.40;99.90
8994;DHT22;4532;50.886;4.700;2023-07-30T11:49:36;21.50;99.90
8994;DHT22;4532;50.886;4.700;2023-07-30T11:52:08;21.50;99.90
8994;DHT22;4532;50.886;4.700;2023-07-30T11:54:39;21.60;99.90
8994;DHT22;4532;50.886;4.700;2023-07-30T11:57:08;21.70;99.90
8994;DHT22;4532;50.886;4.700;2023-07-30T11:59:36;21.60;99.90
8994;DHT22;4532;50.886;4.700;2023-07-30T12:02:06;21.60;99.90
8994;DHT22;4532;50.886;4.700;2023-07-30T12:04:45;21.70;99.90
8994;DHT22;4532;50.886;4.700;2023-07-30T12:07:28;21.70;99.90
8994;DHT22;4532;50.886;4.700;2023-07-30T12:10:12;21.80;99.90
8994;DHT22;4532;50.886;4.700;2023-07-30T12:12:51;21.80;99.90
8994;DHT22;4532;50.886;4.700;2023-07-30T12:15:22;21.80;99.90
8994;DHT22;4532;50.886;4.700;2023-07-30T12:17:49;21.90;99.90
8994;DHT22;4532;50.886;4.700;2023-07-30T12:20:17;21.90;99.90
8994;DHT22;4532;50.886;4.700;2023-07-30T12:22:44;21.90;99.90
8994;DHT22;4532;50.886;4.700;2023-07-30T12:25:12;21.90;99.90
8994;DHT22;4532;50.886;4.700;2023-07-30T12:27:41;21.90;99.90
8994;DHT22;4532;50.886;4.700;2023-07-30T12:30:11;21.90;99.90
8994;DHT22;4532;50.886;4.700;2023-07-30T12:32:38;22.00;99.90
8994;DHT22;4532;50.886;4.700;2023-07-30T12:35:07;21.90;99.90
8994;DHT22;4532;50.886;4.700;2023-07-30T12:37:35;22.00;99.90
8994;DHT22;4532;50.886;4.700;2023-07-30T12:40:04;22.00;99.90
8994;DHT22;4532;50.886;4.700;2023-07-30T12:42:33;22.00;99.90
8994;DHT22;4532;50.886;4.700;2023-07-30T12:45:03;22.00;99.90
8994;DHT22;4532;50.886;4.700;2023-07-30T12:47:30;22.00;99.90
8994;DHT22;4532;50.886;4.700;2023-07-30T12:49:59;22.00;99.90
8994;DHT22;4532;50.886;4.700;2023-07-30T12:52:27;22.00;99.90
8994;DHT22;4532;50.886;4.700;2023-07-30T12:54:54;22.10;99.90
8994;DHT22;4532;50.886;4.700;2023-07-30T12:57:23;22.10;99.90
8994;DHT22;4532;50.886;4.700;2023-07-30T12:59:50;22.20;99.90
8994;DHT22;4532;50.886;4.700;2023-07-30T13:02:18;22.20;99.90
8994;DHT22;4532;50.886;4.700;2023-07-30T13:04:45;22.30;99.90
8994;DHT22;4532;50.886;4.700;2023-07-30T13:07:12;22.30;99.90
8994;DHT22;4532;50.886;4.700;2023-07-30T13:09:40;22.40;99.90
8994;DHT22;4532;50.886;4.700;2023-07-30T13:12:12;22.50;99.90
8994;DHT22;4532;50.886;4.700;2023-07-30T13:14:39;22.60;99.90
8994;DHT22;4532;50.886;4.700;2023-07-30T13:17:06;22.70;99.90
8994;DHT22;4532;50.886;4.700;2023-07-30T13:19:34;22.70;99.90
8994;DHT22;4532;50.886;4.700;2023-07-30T13:22:01;22.80;99.90
8994;DHT22;4532;50.886;4.700;2023-07-30T13:24:29;22.80;99.90
8994;DHT22;4532;50.886;4.700;2023-07-30T13:27:01;22.90;99.90
8994;DHT22;4532;50.886;4.700;2023-07-30T13:29:30;22.90;99.90
8994;DHT22;4532;50.886;4.700;2023-07-30T13:32:00;22.90;99.90
8994;DHT22;4532;50.886;4.700;2023-07-30T13:34:27;22.90;99.90
8994;DHT22;4532;50.886;4.700;2023-07-30T13:36:54;22.90;99.90
8994;DHT22;4532;50.886;4.700;2023-07-30T13:39:22;22.80;99.90
8994;DHT22;4532;50.886;4.700;2023-07-30T13:41:49;22.80;99.90
8994;DHT22;4532;50.886;4.700;2023-07-30T13:44:22;22.90;99.90
8994;DHT22;4532;50.886;4.700;2023-07-30T13:46:49;22.90;99.90
8994;DHT22;4532;50.886;4.700;2023-07-30T13:49:21;23.00;99.90
8994;DHT22;4532;50.886;4.700;2023-07-30T13:51:49;23.00;99.90
8994;DHT22;4532;50.886;4.700;2023-07-30T13:54:16;23.10;99.90
8994;DHT22;4532;50.886;4.700;2023-07-30T13:56:50;23.10;99.90
8994;DHT22;4532;50.886;4.700;2023-07-30T13:59:17;23.20;99.90
8994;DHT22;4532;50.886;4.700;2023-07-30T14:02:14;23.30;99.90
8994;DHT22;4532;50.886;4.700;2023-07-30T14:04:52;23.30;99.90
8994;DHT22;4532;50.886;4.700;2023-07-30T14:07:19;23.30;99.90
8994;DHT22;4532;50.886;4.700;2023-07-30T14:09:46;23.40;99.90
8994;DHT22;4532;50.886;4.700;2023-07-30T14:12:14;23.40;99.90
8994;DHT22;4532;50.886;4.700;2023-07-30T14:14:41;23.40;99.90
8994;DHT22;4532;50.886;4.700;2023-07-30T14:17:10;23.40;99.90
8994;DHT22;4532;50.886;4.700;2023-07-30T14:19:42;23.40;99.90
8994;DHT22;4532;50.886;4.700;2023-07-30T14:22:09;23.40;99.90
8994;DHT22;4532;50.886;4.700;2023-07-30T14:24:37;23.40;99.90
8994;DHT22;4532;50.886;4.700;2023-07-30T14:27:05;23.50;99.90
8994;DHT22;4532;50.886;4.700;2023-07-30T14:29:32;23.50;99.90
8994;DHT22;4532;50.886;4.700;2023-07-30T14:31:59;23.50;99.90
8994;DHT22;4532;50.886;4.700;2023-07-30T14:34:27;23.60;99.90
8994;DHT22;4532;50.886;4.700;2023-07-30T14:36:54;23.60;99.90
8994;DHT22;4532;50.886;4.700;2023-07-30T14:39:23;23.60;99.90
8994;DHT22;4532;50.886;4.700;2023-07-30T14:41:50;23.60;99.90
8994;DHT22;4532;50.886;4.700;2023-07-30T14:44:28;23.70;99.90
8994;DHT22;4532;50.886;4.700;2023-07-30T14:47:08;23.60;99.90
8994;DHT22;4532;50.886;4.700;2023-07-30T14:49:37;23.60;99.90
8994;DHT22;4532;50.886;4.700;2023-07-30T14:52:39;23.60;99.90
8994;DHT22;4532;50.886;4.700;2023-07-30T14:55:37;23.50;99.90
8994;DHT22;4532;50.886;4.700;2023-07-30T14:58:07;23.50;99.90
8994;DHT22;4532;50.886;4.700;2023-07-30T15:00:38;23.60;99.90
8994;DHT22;4532;50.886;4.700;2023-07-30T15:03:10;23.50;99.90
8994;DHT22;4532;50.886;4.700;2023-07-30T15:05:37;23.60;99.90
8994;DHT22;4532;50.886;4.700;2023-07-30T15:08:05;23.60;99.90
8994;DHT22;4532;50.886;4.700;2023-07-30T15:10:32;23.60;99.90
8994;DHT22;4532;50.886;4.700;2023-07-30T15:12:59;23.60;99.90
8994;DHT22;4532;50.886;4.700;2023-07-30T15:15:27;23.60;99.90
8994;DHT22;4532;50.886;4.700;2023-07-30T15:17:54;23.60;99.90
8994;DHT22;4532;50.886;4.700;2023-07-30T15:20:23;23.60;99.90
8994;DHT22;4532;50.886;4.700;2023-07-30T15:22:51;23.50;99.90
8994;DHT22;4532;50.886;4.700;2023-07-30T15:25:21;23.60;99.90
8994;DHT22;4532;50.886;4.700;2023-07-30T15:27:48;23.60;99.90
8994;DHT22;4532;50.886;4.700;2023-07-30T15:30:20;23.60;99.90
8994;DHT22;4532;50.886;4.700;2023-07-30T15:32:49;23.60;99.90
8994;DHT22;4532;50.886;4.700;2023-07-30T15:35:19;23.70;99.90
8994;DHT22;4532;50.886;4.700;2023-07-30T15:37:46;23.60;99.90
8994;DHT22;4532;50.886;4.700;2023-07-30T15:40:16;23.60;99.90
8994;DHT22;4532;50.886;4.700;2023-07-30T15:42:45;23.60;99.90
8994;DHT22;4532;50.886;4.700;2023-07-30T15:45:16;23.50;99.90
8994;DHT22;4532;50.886;4.700;2023-07-30T15:47:44;23.50;99.90
8994;DHT22;4532;50.886;4.700;2023-07-30T15:50:14;23.40;99.90
8994;DHT22;4532;50.886;4.700;2023-07-30T15:52:42;23.30;99.90
8994;DHT22;4532;50.886;4.700;2023-07-30T15:55:09;23.20;99.90
8994;DHT22;4532;50.886;4.700;2023-07-30T15:57:41;23.10;99.90
8994;DHT22;4532;50.886;4.700;2023-07-30T16:00:09;23.10;99.90
8994;DHT22;4532;50.886;4.700;2023-07-30T16:02:37;23.00;99.90
8994;DHT22;4532;50.886;4.700;2023-07-30T16:05:04;22.90;99.90
8994;DHT22;4532;50.886;4.700;2023-07-30T16:07:32;22.80;99.90
8994;DHT22;4532;50.886;4.700;2023-07-30T16:09:59;22.80;99.90
8994;DHT22;4532;50.886;4.700;2023-07-30T16:12:26;22.70;99.90
8994;DHT22;4532;50.886;4.700;2023-07-30T16:15:00;22.70;99.90
8994;DHT22;4532;50.886;4.700;2023-07-30T16:17:31;22.60;99.90